CheckWX is a tool to help pilots better visualize weather data.  It is not intended as a substitute for an official pre-flight weather briefing.

10:12:09 UTC

KVOK METAR
Volk Field Airport
Camp Douglas, Wisconsin, USA
Current

16 mins ago

KVOK 220956Z AUTO 20009KT 10SM -RA FEW008 SCT015 22/22 A2982 RMK AO2 RAB39 SLP096 P0020 T02160216 $
Observed
Sep-22 @ 09:56 UTC
Wind
  • 200° at 9 KTS
Visibility
10 SM
Flight Rules
VFR
Conditions
Light Rain
Cloud Levels
  • Few at 800' AGL
  • Scattered at 1,500' AGL
Temperature
22°C / 72°F
Dewpoint
22°C / 72°F
Humidity
100%
Altimeter
29.82" Hg
Pressure
1009.82 hPa
Current Rain
0.2"
Previous

28 mins ago

KVOK 220944Z AUTO 24013G17KT 5SM +RA BR SCT009 SCT016 22/22 A2982 RMK AO2 WSHFT 40 LTG DSNT SE AND SW RAB39 SLP096 $
Observed
Sep-22 @ 09:44 UTC
Wind
  • 240° at 13 KTS
  • Gusting to 17 KTS
Visibility
5 SM
Flight Rules
MVFR
Conditions
Heavy Rain, Mist
Cloud Levels
  • Scattered at 900' AGL
  • Scattered at 1,600' AGL
Temperature
22°C / 72°F
Dewpoint
22°C / 72°F
Humidity
100%
Altimeter
29.82" Hg
Pressure
1009.82 hPa
Previous

1 hour ago

KVOK 220856Z AUTO 00000KT 10SM CLR 22/22 A2982 RMK AO2 SLP096 T02190219 57015 $
Observed
Sep-22 @ 08:56 UTC
Visibility
10 SM
Flight Rules
VFR
Cloud Levels
  • Clear skies
Temperature
22°C / 72°F
Dewpoint
22°C / 72°F
Humidity
100%
Altimeter
29.82" Hg
Pressure
1009.82 hPa